createdAt,value
2023-03-11T18:06:11.850Z,19.26
2023-03-11T18:12:31.789Z,5.47
2023-03-11T18:15:00.170Z,4.07
2023-03-11T18:17:26.629Z,3.45
2023-03-11T18:19:52.894Z,2.86
2023-03-11T18:22:19.183Z,2.30
2023-03-11T18:24:45.772Z,1.70
2023-03-11T18:27:12.396Z,1.88
2023-03-11T18:29:38.662Z,1.22
2023-03-11T18:32:05.158Z,1.15
2023-03-11T18:34:31.484Z,1.56
2023-03-11T18:36:58.522Z,1.85
2023-03-11T18:39:27.115Z,2.07
2023-03-11T18:41:53.387Z,1.25
2023-03-11T18:44:19.780Z,1.27
2023-03-11T18:46:46.258Z,1.42
2023-03-11T18:49:12.705Z,0.82
2023-03-11T18:51:38.826Z,0.96
2023-03-11T18:54:04.982Z,0.81
2023-03-11T18:56:31.128Z,1.04
2023-03-11T18:58:57.433Z,1.00
2023-03-11T19:01:23.953Z,1.07
2023-03-11T19:03:50.101Z,1.37
2023-03-11T19:06:16.307Z,1.24
2023-03-11T19:08:42.451Z,1.44
2023-03-11T19:11:08.592Z,1.25
2023-03-11T19:13:46.205Z,1.59
2023-03-11T19:16:13.434Z,1.73
2023-03-11T19:18:39.626Z,1.22
2023-03-11T19:21:06.091Z,0.68
2023-03-11T19:23:32.211Z,0.52
2023-03-11T19:26:02.953Z,0.52
2023-03-11T19:28:29.828Z,1.09
2023-03-11T19:30:56.106Z,1.25
2023-03-11T19:33:22.308Z,0.91
2023-03-11T19:35:48.485Z,0.63
2023-03-11T19:38:14.630Z,0.51
2023-03-11T19:40:40.844Z,0.78
2023-03-11T19:43:07.069Z,1.17
2023-03-11T19:45:33.224Z,1.17
2023-03-11T19:47:59.641Z,1.18
2023-03-11T19:50:26.129Z,1.12
2023-03-11T19:52:52.319Z,1.09
2023-03-11T19:55:18.596Z,1.44
2023-03-11T19:57:46.035Z,1.76
2023-03-11T20:00:12.433Z,1.42
2023-03-11T20:02:38.637Z,1.62
2023-03-11T20:05:05.247Z,1.71
2023-03-11T20:07:31.501Z,1.20
2023-03-11T20:09:57.934Z,0.99
2023-03-11T20:12:36.179Z,0.54
2023-03-11T20:15:02.461Z,0.49
2023-03-11T20:17:28.665Z,0.70
2023-03-11T20:20:01.522Z,0.86
2023-03-11T20:22:27.670Z,0.97
2023-03-11T20:24:54.146Z,1.13
2023-03-11T20:27:20.516Z,1.20
2023-03-11T20:29:46.994Z,1.16
2023-03-11T20:32:13.359Z,1.28
2023-03-11T20:34:39.618Z,1.32
2023-03-11T20:37:06.011Z,1.34
2023-03-11T20:39:32.244Z,1.29
2023-03-11T20:41:58.455Z,1.16
2023-03-11T20:44:24.732Z,1.34
2023-03-11T20:46:51.716Z,1.61
2023-03-11T20:49:18.096Z,1.55
2023-03-11T20:51:44.670Z,1.33
2023-03-11T20:54:20.536Z,1.03
2023-03-11T20:56:46.725Z,0.95
2023-03-11T20:59:13.294Z,1.24
2023-03-11T21:01:39.581Z,1.19
2023-03-11T21:04:06.041Z,1.06
2023-03-11T21:06:32.324Z,1.46
2023-03-11T21:08:58.437Z,1.64
2023-03-11T21:11:24.682Z,1.69
2023-03-11T21:13:50.858Z,1.31
2023-03-11T21:16:17.224Z,1.49
2023-03-11T21:18:44.227Z,1.46
2023-03-11T21:21:10.589Z,1.59
2023-03-11T21:23:36.773Z,1.53
2023-03-11T21:26:05.396Z,1.02
2023-03-11T21:28:31.541Z,0.92
2023-03-11T21:30:57.771Z,1.43
2023-03-11T21:33:23.961Z,1.44
2023-03-11T21:35:50.190Z,1.15
2023-03-11T21:38:16.492Z,1.36
2023-03-11T21:40:42.970Z,1.29
2023-03-11T21:43:09.167Z,1.17
2023-03-11T21:45:35.476Z,1.16
2023-03-11T21:48:02.115Z,1.41
2023-03-11T21:50:28.258Z,0.94
2023-03-11T21:52:54.397Z,0.96
2023-03-11T21:55:20.829Z,1.10
2023-03-11T21:57:47.065Z,1.44
2023-03-11T22:00:13.238Z,1.41
2023-03-11T22:02:39.688Z,1.41
2023-03-11T22:05:05.822Z,1.10
2023-03-11T22:07:32.118Z,0.86
2023-03-11T22:09:58.348Z,1.06
2023-03-11T22:12:24.654Z,1.21
2023-03-11T22:14:50.967Z,1.26
2023-03-11T22:17:17.127Z,1.39
2023-03-11T22:19:43.419Z,1.13
2023-03-11T22:22:09.636Z,0.93
2023-03-11T22:24:35.933Z,1.46
2023-03-11T22:27:02.066Z,1.26
2023-03-11T22:29:28.534Z,0.78
2023-03-11T22:31:54.873Z,0.66
2023-03-11T22:34:21.039Z,0.70
2023-03-11T22:36:47.269Z,0.78
2023-03-11T22:39:13.388Z,1.07
2023-03-11T22:41:39.700Z,1.52
2023-03-11T22:44:05.788Z,1.53
2023-03-11T22:46:31.907Z,1.21
2023-03-11T22:48:58.340Z,0.73
2023-03-11T22:51:24.524Z,0.80
2023-03-11T22:53:50.813Z,1.16
2023-03-11T22:56:16.954Z,1.16
2023-03-11T22:58:43.083Z,0.68
2023-03-11T23:01:09.983Z,1.03
2023-03-11T23:03:36.260Z,0.72
2023-03-11T23:06:02.490Z,0.66
2023-03-11T23:08:29.018Z,0.43
2023-03-11T23:10:55.232Z,0.66
2023-03-11T23:13:21.558Z,0.62
2023-03-11T23:15:48.006Z,0.90
2023-03-11T23:18:14.117Z,0.88
2023-03-11T23:20:40.258Z,0.73
2023-03-11T23:23:06.421Z,0.46
2023-03-11T23:25:32.569Z,0.62
2023-03-11T23:27:58.863Z,0.97
2023-03-11T23:30:24.991Z,1.21
2023-03-11T23:32:51.192Z,0.88
2023-03-11T23:35:17.368Z,0.78
2023-03-11T23:37:43.774Z,1.29
2023-03-11T23:40:10.071Z,1.67
2023-03-11T23:42:36.262Z,1.64
2023-03-11T23:45:02.725Z,1.70
2023-03-11T23:47:29.012Z,1.66
2023-03-11T23:49:55.326Z,0.86
2023-03-11T23:52:21.485Z,0.91
2023-03-11T23:54:47.636Z,1.23
2023-03-11T23:57:13.780Z,1.06
2023-03-11T23:59:40.388Z,0.48
